首页
METAR-TAF:

METAR-TAF

机场 :

Greenbrier Valley Airport

Lewisburg, 西維吉尼亞州, 美国

纬度: 37-52N, 经度: 080-24W, 海拔: 702米

当前天气观测

该预报发布于21分钟前的13:55 UTC
风速3节,风向
温度 22°C
湿度 83%
气压 1021 hPa
能見度: 16.1公里
散云层高于1000英尺
多云层高于3800英尺
多云层高于4500英尺

METAR: KLWB 201355Z AUTO 09003KT 10SM SCT010 BKN038 BKN045 22/19 A3015 RMK AO2 T02160192

时间: 10:16 (14:16 UTC)

预报

该预报发布于1小时和12分钟前的13:04 UTC
预报有效从20日的 13点(UTC)到 21日的 12点(UTC)
风速3节,风向多变
能見度: 10公里
散云层高于700英尺
散云层高于1500英尺
阴天层高于4000英尺
短暂存在
从 20日的 13点(UTC)到 20日的 15点(UTC)
多云层高于700英尺
多云层高于1500英尺
从 20日的 1800点(UTC)
风速3节,风向东转东南
能見度: 10公里
多云层高于2500英尺
阴天层高于10000英尺
附近有阵雨
从 21日的 0000点(UTC)
风速3节,风向东南
能見度: 10公里
阴天层高于1800英尺
附近有阵雨
从 21日的 0600点(UTC)
风速节,风向
能見度: 4.8公里
阴天层高于1200英尺
轻雾

TAF: KLWB 201304Z 2013/2112 VRB03KT P6SM SCT007 SCT015 OVC040 TEMPO 2013/2015 BKN007 BKN015 FM201800 11003KT P6SM VCSH BKN025 OVC100 FM210000 14003KT P6SM VCSH OVC018 FM210600 00000KT 3SM BR OVC012

超过4000个机场的气象观测和天气预报(METAR&TAF报告)。

可查询的气象台以黄色和红色小点在地图上表示。

将鼠标移到小点上方,可查看气象台名称。

然后点击查看天气观测和预报。

如需切换地图:点击带黑十字的绿色按钮放大地图;点击带横线的绿色按钮缩小地图;或者点击绿色箭头查看邻近地区的地图。


METAR-TAF: